Latest Weather Observations for Moranbah Airport

IDQ60801

Issued at 4:32 pm EST Friday 23 June 2017 (issued every 30 minutes, with the page automatically refreshed every 10 minutes)

About weather observations | Map of weather stations | Latest weather observations for QLD | Other Formats
Station Details ID: 034035 Name: MORANBAH AIRPORT Lat: -22.06 Lon: 148.08 Height: 232.2 m
Data from the previous 72 hours. | See also: Recent months at Moranbah Airport
Date/Time
EST
Temp
°C
App
Temp
°C
Dew
Point
°C
Rel
Hum
%
Delta-T
°C
Wind Press
QNH
hPa
Press
MSL
hPa
Rain since
9am
mm
Dir  Spd
km/h
Gust
km/h
Spd
kts
Gust
kts
23/04:30pm 22.2 19.9 13.0 56 5.3 ENE 17 22 9 12 1018.3 1017.8 0.0
23/04:00pm 22.1 20.1 12.6 55 5.4 ENE 15 19 8 10 1018.4 1017.9 0.0
23/03:30pm 22.1 21.2 12.6 55 5.5 ENE 9 15 5 8 1018.4 1017.9 0.0
23/03:00pm 22.1 20.8 12.6 55 5.4 NE 11 15 6 8 1018.4 1017.9 0.0
23/02:30pm 22.8 21.5 13.8 57 5.3 ENE 13 19 7 10 1018.7 1018.3 0.0
23/02:00pm 22.6 20.2 12.8 54 5.7 E 17 22 9 12 1019.0 1018.6 0.0
23/01:30pm 22.4 20.6 13.2 56 5.3 ENE 15 26 8 14 1019.2 1018.8 0.0
23/01:00pm 22.5 20.2 13.0 55 5.5 ESE 17 24 9 13 1019.8 1019.4 0.0
23/12:30pm 21.5 18.7 12.6 57 5.1 ESE 19 28 10 15 1020.4 1020.0 0.0
23/12:00pm 21.4 18.8 12.0 55 5.3 ESE 17 28 9 15 1021.2 1020.8 0.0
23/11:30am 20.3 18.6 12.3 60 4.5 SE 13 24 7 13 1021.9 1021.4 0.0
23/11:00am 19.7 18.3 12.2 62 4.2 SE 11 17 6 9 1022.6 1022.2 0.0
23/10:30am 18.4 15.5 12.4 68 3.4 E 19 26 10 14 1023.0 1022.6 0.0
23/10:00am 18.6 16.0 12.1 66 3.6 ESE 17 22 9 12 1022.8 1022.4 0.0
23/09:30am 17.8 15.8 11.6 67 3.4 SE 13 17 7 9 1022.7 1022.3 0.0
23/09:00am 16.4 15.7 11.3 72 2.8 ESE 6 11 3 6 1022.7 1022.3 0.0
23/08:30am 12.8 12.9 10.0 83 1.5 CALM 0 0 0 0 1022.6 1022.2 0.0
23/08:00am 10.4 10.2 9.0 91 0.7 CALM 0 0 0 0 1022.4 1022.0 0.0
23/07:30am 8.5 7.9 7.6 94 0.4 CALM 0 0 0 0 1022.2 1021.8 0.0
23/07:00am 7.2 5.2 6.3 94 0.4 WSW 6 7 3 4 1021.9 1021.4 0.0
23/06:30am 6.3 5.2 4.9 91 0.6 CALM 0 0 0 0 1021.7 1021.2 0.0
23/06:00am 6.5 4.1 5.3 92 0.5 SW 7 7 4 4 1021.5 1021.0 0.0
23/05:30am 7.1 5.1 6.2 94 0.4 E 6 7 3 4 1021.4 1020.9 0.0
23/05:00am 6.2 3.4 5.2 93 0.4 ENE 9 13 5 7 1021.1 1020.7 0.0
23/04:30am 6.6 4.4 5.4 92 0.5 SW 6 9 3 5 1020.7 1020.3 0.0
23/04:00am 6.8 5.8 5.6 92 0.5 CALM 0 0 0 0 1020.8 1020.4 0.0
23/03:30am 7.4 6.5 6.0 91 0.6 CALM 0 0 0 0 1021.0 1020.6 0.0
23/03:00am 7.4 6.5 5.9 90 0.7 CALM 0 4 0 2 1021.4 1020.9 0.0
23/02:30am 7.3 4.6 5.8 90 0.7 S 9 9 5 5 1021.1 1020.7 0.0
23/02:00am 7.1 4.9 5.1 87 0.9 SW 6 7 3 4 1021.5 1021.0 0.0
23/01:30am 8.0 7.1 6.0 87 0.9 CALM 0 0 0 0 1021.8 1021.3 0.0
23/01:00am 8.5 7.8 6.8 89 0.8 CALM 0 0 0 0 1022.1 1021.6 0.0
23/12:30am 9.9 7.7 7.7 86 1.1 SSE 9 9 5 5 1022.2 1021.8 0.0
23/12:00am 9.6 7.6 7.0 84 1.2 S 7 9 4 5 1022.2 1021.8 0.0
 
Date/Time
EST
Temp
°C
App
Temp
°C
Dew
Point
°C
Rel
Hum
%
Delta-T
°C
Wind Press
QNH
hPa
Press
MSL
hPa
Rain since
9am
mm
Dir  Spd
km/h
Gust
km/h
Spd
kts
Gust
kts
22/11:30pm 10.1 8.1 7.2 82 1.4 SW 7 9 4 5 1022.4 1022.0 0.0
22/11:00pm 11.0 8.6 6.9 76 2.0 SSW 9 11 5 6 1022.7 1022.3 0.0
22/10:30pm 12.0 9.4 7.7 75 2.1 S 11 13 6 7 1022.8 1022.4 0.0
22/10:00pm 11.3 9.0 7.6 78 1.8 SSE 9 11 5 6 1022.8 1022.4 0.0
22/09:30pm 12.8 10.3 8.3 74 2.3 ESE 11 11 6 6 1022.9 1022.5 0.0
22/09:00pm 12.9 10.0 8.2 73 2.3 ESE 13 15 7 8 1022.8 1022.4 0.0
22/08:30pm 13.5 11.1 8.6 72 2.5 ESE 11 13 6 7 1022.6 1022.2 0.0
22/08:00pm 13.3 10.6 7.5 68 2.9 ESE 11 11 6 6 1022.4 1022.0 0.0
22/07:30pm 14.5 11.3 8.5 67 3.1 SSE 15 17 8 9 1022.0 1021.5 0.0
22/07:00pm 15.5 12.3 8.5 63 3.6 SSE 15 15 8 8 1021.8 1021.3 0.0
22/06:30pm 16.1 12.9 8.3 60 4.0 SSE 15 15 8 8 1021.5 1021.0 0.0
22/06:00pm 17.5 14.7 8.6 56 4.6 SE 13 17 7 9 1021.1 1020.7 0.0
22/05:30pm 18.4 15.8 7.8 50 5.5 ESE 11 13 6 7 1020.8 1020.4 0.0
22/05:00pm 21.4 18.6 8.7 44 6.8 ESE 13 19 7 10 1020.7 1020.3 0.0
22/04:30pm 22.4 19.5 8.1 40 7.6 ESE 13 15 7 8 1020.6 1020.2 0.0
22/04:00pm 22.7 19.6 8.8 41 7.5 SE 15 20 8 11 1020.4 1020.0 0.0
22/03:30pm 23.1 20.4 9.1 41 7.6 E 13 24 7 13 1020.3 1019.9 0.0
22/03:00pm 23.2 20.6 9.2 41 7.6 SE 13 17 7 9 1020.4 1020.0 0.0
22/02:30pm 23.1 19.7 9.1 41 7.6 E 17 28 9 15 1020.7 1020.3 0.0
22/02:00pm 23.1 20.1 9.1 41 7.6 SSE 15 20 8 11 1021.1 1020.7 0.0
22/01:30pm 22.8 19.1 8.1 39 7.8 E 17 22 9 12 1021.7 1021.2 0.0
22/01:00pm 22.5 18.6 7.1 37 8.0 ESE 17 26 9 14 1022.1 1021.6 0.0
22/12:30pm 22.2 18.1 8.0 40 7.5 ESE 19 28 10 15 1022.5 1022.1 0.0
22/12:00pm 22.1 18.0 7.9 40 7.5 SE 19 30 10 16 1022.9 1022.5 0.0
22/11:30am 21.8 17.4 7.6 40 7.4 SE 20 28 11 15 1023.4 1023.0 0.0
22/11:00am 21.0 16.5 6.9 40 7.2 ESE 20 26 11 14 1023.9 1023.5 0.0
22/10:30am 20.7 16.2 8.4 45 6.5 E 22 28 12 15 1024.4 1024.0 0.0
22/10:00am 19.7 15.6 8.7 49 5.8 SE 20 28 11 15 1024.4 1024.0 0.0
22/09:30am 18.0 16.1 10.6 62 4.0 ESE 11 15 6 8 1024.7 1024.3 0.0
22/09:00am 15.6 14.2 10.8 73 2.6 SE 9 11 5 6 1024.6 1024.2 0.0
22/08:30am 12.6 12.4 8.9 78 1.9 CALM 0 0 0 0 1024.5 1024.1 0.0
22/08:00am 9.3 8.7 7.3 87 1.0 CALM 0 0 0 0 1024.1 1023.7 0.0
22/07:30am 6.4 5.4 5.4 93 0.4 CALM 0 0 0 0 1023.8 1023.4 0.0
22/07:00am 5.1 3.8 4.2 94 0.4 CALM 0 0 0 0 1023.6 1023.2 0.0
22/06:30am 5.1 3.8 4.2 94 0.4 CALM 0 0 0 0 1023.3 1022.9 0.0
22/06:00am 5.2 3.9 4.3 94 0.4 CALM 0 0 0 0 1023.0 1022.6 0.0
22/05:30am 5.0 3.7 4.1 94 0.4 CALM 0 0 0 0 1022.7 1022.3 0.0
22/05:00am 5.0 3.6 3.5 90 0.6 CALM 0 0 0 0 1022.5 1022.1 0.0
22/04:30am 5.5 4.2 4.2 91 0.6 CALM 0 0 0 0 1022.3 1021.9 0.0
22/04:00am 5.8 4.2 4.4 91 0.6 SSW 2 7 1 4 1022.4 1022.0 0.0
22/03:30am 6.5 5.0 5.0 90 0.7 SSW 2 6 1 3 1022.3 1021.9 0.0
22/03:00am 5.9 3.5 4.2 89 0.7 WSW 6 7 3 4 1022.3 1021.9 0.0
22/02:30am 6.7 5.6 4.9 88 0.8 CALM 0 0 0 0 1022.4 1022.0 0.0
22/02:00am 6.8 5.6 4.8 87 0.9 CALM 0 0 0 0 1022.5 1022.1 0.0
22/01:30am 7.2 6.1 5.2 87 0.9 CALM 0 0 0 0 1022.7 1022.3 0.0
22/01:00am 7.1 4.9 5.1 87 0.9 S 6 7 3 4 1022.7 1022.3 0.0
22/12:30am 7.0 5.3 4.1 82 1.3 SE 2 6 1 3 1022.8 1022.4 0.0
22/12:00am 9.5 7.1 6.8 83 1.3 S 9 9 5 5 1022.8 1022.4 0.0
 
Date/Time
EST
Temp
°C
App
Temp
°C
Dew
Point
°C
Rel
Hum
%
Delta-T
°C
Wind Press
QNH
hPa
Press
MSL
hPa
Rain since
9am
mm
Dir  Spd
km/h
Gust
km/h
Spd
kts
Gust
kts
21/11:30pm 8.8 7.2 6.4 85 1.1 W 4 7 2 4 1022.8 1022.4 0.0
21/11:00pm 8.7 7.7 5.8 82 1.3 CALM 0 0 0 0 1022.9 1022.5 0.0
21/10:30pm 9.6 7.6 6.1 79 1.6 SSE 6 7 3 4 1022.8 1022.4 0.0
21/10:00pm 10.8 10.0 6.6 75 2.0 CALM 0 0 0 0 1022.7 1022.3 0.0
21/09:30pm 12.1 9.8 5.7 65 3.0 SSE 7 9 4 5 1022.7 1022.3 0.0
21/09:00pm 14.4 10.9 7.2 62 3.6 SSE 15 17 8 9 1022.7 1022.3 0.0
21/08:30pm 13.7 10.5 7.0 64 3.3 SSE 13 15 7 8 1022.5 1022.1 0.0
21/08:00pm 14.3 11.2 7.1 62 3.5 SE 13 15 7 8 1022.3 1021.9 0.0
21/07:30pm 14.7 11.4 6.5 58 4.0 ESE 13 17 7 9 1021.9 1021.4 0.0
21/07:00pm 16.5 13.4 7.4 55 4.6 ESE 13 17 7 9 1021.7 1021.2 0.0
21/06:30pm 16.5 13.3 6.9 53 4.8 ESE 13 15 7 8 1021.4 1020.9 0.0
21/06:00pm 17.2 14.3 6.7 50 5.2 ESE 11 13 6 7 1021.0 1020.6 0.0
21/05:30pm 19.2 15.9 6.3 43 6.5 E 13 15 7 8 1020.8 1020.4 0.0
21/05:00pm 21.2 17.5 6.3 38 7.6 ESE 15 20 8 11 1020.5 1020.1 0.0
21/04:30pm 22.2 17.7 6.8 37 8.0 ESE 20 26 11 14 1020.3 1019.9 0.0
21/04:00pm 22.7 18.4 7.7 38 7.9 ESE 20 26 11 14 1020.0 1019.6 0.0
21/03:30pm 23.1 18.7 7.2 36 8.3 ESE 20 28 11 15 1020.0 1019.6 0.0
21/03:00pm 23.4 19.1 7.9 37 8.2 ESE 20 30 11 16 1020.1 1019.7 0.0
21/02:30pm 23.5 19.8 8.0 37 8.3 ESE 17 26 9 14 1020.2 1019.8 0.0
21/02:00pm 24.0 19.9 8.8 38 8.2 SE 20 32 11 17 1020.6 1020.2 0.0
21/01:30pm 23.1 18.6 8.4 39 7.9 ESE 22 35 12 19 1020.9 1020.5 0.0
21/01:00pm 22.6 18.5 8.7 41 7.4 SE 20 33 11 18 1021.4 1020.9 0.0
21/12:30pm 22.6 17.9 9.4 43 7.2 ESE 24 33 13 18 1021.8 1021.3 0.0
21/12:00pm 22.7 18.6 10.2 45 6.9 ESE 22 32 12 17 1022.3 1021.9 0.0
21/11:30am 22.1 18.0 11.5 51 6.0 ESE 24 33 13 18 1022.7 1022.3 0.0
21/11:00am 21.6 17.2 11.6 53 5.6 E 26 35 14 19 1023.2 1022.8 0.0
21/10:30am 20.9 17.1 12.3 58 4.9 E 24 32 13 17 1023.3 1022.9 0.0
21/10:00am 19.7 16.5 13.2 66 3.7 ESE 22 32 12 17 1023.6 1023.2 0.0
21/09:30am 18.6 15.9 13.0 70 3.2 ESE 19 26 10 14 1023.6 1023.2 0.0
21/09:00am 16.8 14.3 12.3 75 2.5 ESE 17 20 9 11 1023.6 1023.2 0.0
21/08:30am 15.4 13.7 12.5 83 1.6 SE 13 17 7 9 1023.4 1023.0 0.0
21/08:00am 12.9 11.2 11.3 90 0.9 ESE 11 13 6 7 1023.0 1022.6 0.0
21/07:30am 11.3 9.9 10.8 97 0.3 ESE 9 13 5 7 1022.6 1022.2 0.0
21/07:00am 9.3 7.7 8.7 96 0.3 E 7 9 4 5 1022.2 1021.8 0.0
21/06:30am 9.6 7.5 8.2 91 0.7 SE 9 13 5 7 1021.8 1021.3 0.0
21/06:00am 11.0 8.2 9.9 93 0.6 SSE 15 17 8 9 1021.4 1020.9 0.0
21/05:30am 10.5 8.0 9.6 94 0.5 SSE 13 15 7 8 1021.1 1020.7 0.0
21/05:00am 10.9 8.1 10.1 95 0.4 SE 15 15 8 8 1020.9 1020.5 0.0
21/04:30am 10.4 9.6 9.5 94 0.5 SE 4 9 2 5 1020.7 1020.3 0.0
21/04:00am 10.8 9.1 9.9 94 0.5 SE 9 11 5 6 1020.7 1020.3 0.0
21/03:30am 10.8 8.6 9.4 91 0.7 SSE 11 13 6 7 1020.7 1020.3 0.0
21/03:00am 11.4 8.9 9.7 89 0.9 SSE 13 15 7 8 1020.7 1020.3 0.0
21/02:30am 11.4 8.8 9.3 87 1.1 SSE 13 15 7 8 1020.7 1020.3 0.0
21/02:00am 12.0 9.5 9.6 85 1.2 SSE 13 13 7 7 1020.9 1020.5 0.0
21/01:30am 12.4 9.7 10.5 88 1.0 SE 15 15 8 8 1021.1 1020.7 0.0
21/01:00am 11.8 9.2 9.5 86 1.2 SE 13 15 7 8 1021.1 1020.7 0.0
21/12:30am 11.9 9.0 9.8 87 1.1 SE 15 15 8 8 1021.6 1021.1 0.0
21/12:00am 12.6 9.7 9.8 83 1.4 SE 15 15 8 8 1021.6 1021.1 0.0
 
Date/Time
EST
Temp
°C
App
Temp
°C
Dew
Point
°C
Rel
Hum
%
Delta-T
°C
Wind Press
QNH
hPa
Press
MSL
hPa
Rain since
9am
mm
Dir  Spd
km/h
Gust
km/h
Spd
kts
Gust
kts
20/11:30pm 11.8 10.6 9.4 85 1.2 SSE 6 7 3 4 1021.7 1021.2 0.0
20/11:00pm 11.1 10.1 8.8 86 1.1 E 4 7 2 4 1021.6 1021.1 0.0
20/10:30pm 11.8 10.4 9.5 86 1.2 ENE 7 11 4 6 1021.6 1021.1 0.0
20/10:00pm 11.6 10.0 8.8 83 1.4 E 7 11 4 6 1021.7 1021.2 0.0
20/09:30pm 12.5 11.1 9.0 79 1.8 SE 6 7 3 4 1021.5 1021.0 0.0
20/09:00pm 13.4 11.2 9.3 76 2.1 SSE 11 13 6 7 1021.4 1020.9 0.0
20/08:30pm 15.0 12.9 9.6 70 2.8 S 11 13 6 7 1021.2 1020.8 0.0
20/08:00pm 15.1 13.4 9.9 71 2.7 SSE 9 11 5 6 1021.0 1020.6 0.0
20/07:30pm 16.0 14.0 10.1 68 3.1 SE 11 11 6 6 1020.7 1020.3 0.0
20/07:00pm 16.5 14.5 10.1 66 3.4 SE 11 13 6 7 1020.4 1020.0 0.0
20/06:30pm 16.9 14.9 10.1 64 3.6 SE 11 13 6 7 1020.1 1019.7 0.0
20/06:00pm 17.8 15.8 10.2 61 4.1 SE 11 13 6 7 1019.8 1019.4 0.0
20/05:30pm 19.8 17.4 10.2 54 5.2 ESE 13 15 7 8 1019.6 1019.2 0.0
20/05:00pm 22.1 18.8 10.9 49 6.2 ESE 19 24 10 13 1019.3 1018.9 0.0

Other Formats:

Comma delimited format used in spreadsheet applications
http://www.bom.gov.au/fwo/IDQ60801/IDQ60801.94397.axf

JavaScript Object Notation format (JSON) in row-major order
http://www.bom.gov.au/fwo/IDQ60801/IDQ60801.94397.json